Albuquerque, NM

11:06 PM MDT on April 29, 2017 (GMT -0600)
Albuquerque International Sunport | | Change Station

Elev 5354 ft 35.04 °N, 106.61 °W | Updated 14 minutes ago

Rain
Rain
37 °F
Feels Like 32 °F
N
7
Wind Variable Wind from SSW

Today
High -- | Low -- °F
--% Chance of Precip.
Yesterday
High -- | Low -- °F
Precip. -- in
Pressure 30.08 in
Visibility 10.0 miles
Clouds Few 900 ft
Mostly Cloudy 2600 ft
Overcast 3800 ft
Windchill 32 °F
Dew Point 35 °F
Humidity 93%
Rainfall 0.23 in
Snow Depth Not available.
6:17 AM 7:50 PM
Waxing Crescent, 19% visible
METAR KABQ 300452Z 20006KT 10SM -RA FEW009 BKN026 OVC038 03/02 A3008 RMK AO2 RAB12 SLP185 MTNS OBSC NE-SE P0002 T00280017
Pressure 30.08 in
Visibility 10.0 miles
Clouds Few 900 ft
Mostly Cloudy 2600 ft
Overcast 3800 ft
Windchill 32 °F
Dew Point 35 °F
Humidity 93%
Rainfall 0.23 in
Snow Depth Not available.
6:17 AM 7:50 PM
Waxing Crescent, 19% visible
METAR KABQ 300452Z 20006KT 10SM -RA FEW009 BKN026 OVC038 03/02 A3008 RMK AO2 RAB12 SLP185 MTNS OBSC NE-SE P0002 T00280017

Get Severe Weather Alerts

Thanks for signing up!

Be on the lookout for a verification email in your inbox.

You'll start receiving the daily forecast at 8 AM.

×

10-Day Weather Forecast

Almanac

Astronomy

Apr. 29, 2017 Rise Set
Actual Time
Civil Twilight
Nautical Twilight
Astronomical Twilight
Moon
Length of Visible Light
Length of Day
Tomorrow will be .
, % of the Moon is Illuminated

Today's Extremes

State Highs State Lows

Community

WunderPhotos

WunderBlog® & News

Nearby

Air Quality

  Air Quality AQ Index Pollutant
Not available.

Snow Depth

Station Depth Elevation

Earthquake Activity

City Distance Mag. Time & Date
Minimum magnitude displayed is 2.5.

Coastal Water Temperatures

Place Temperature

Stations

Nearby Weather Stations

Station Location Temp. Windchill Dew Point Humidity Wind Precip. Elev Updated Type
                   

Watches & Warnings

There are currently no watches in effect.